Time;durP1;ratioP1;P1;durP2;ratioP2;P2;SDS_P1;SDS_P2;PMS_P1;PMS_P2;Temp;Humidity;BMP_temperature;BMP_pressure;BME280_temperature;BME280_humidity;BME280_pressure;Samples;Min_cycle;Max_cycle;Signal;HPM_P1;HPM_P2
2021/11/25 00:00:15;;;;;;;5.30;4.13;;;;;;;-140.79;100.00;63287.88;5029505;28;20025;-65
2021/11/25 00:02:40;;;;;;;5.03;3.65;;;;;;;-140.79;100.00;63287.88;5029380;28;20061;-65
2021/11/25 00:05:06;;;;;;;4.85;3.97;;;;;;;-140.79;100.00;63287.88;5029513;28;20454;-66
2021/11/25 00:07:32;;;;;;;5.53;3.88;;;;;;;-140.79;100.00;63287.88;5029523;28;20459;-65
2021/11/25 00:09:57;;;;;;;5.38;4.30;;;;;;;-140.79;100.00;63287.88;5029276;28;20034;-65
2021/11/25 00:12:23;;;;;;;5.05;3.75;;;;;;;-140.79;100.00;63287.88;5029417;28;20025;-65
2021/11/25 00:14:48;;;;;;;5.85;3.92;;;;;;;-140.79;100.00;63287.88;5029437;28;20033;-65
2021/11/25 00:17:14;;;;;;;4.88;3.58;;;;;;;-140.79;100.00;63287.88;5027873;28;20025;-65
2021/11/25 00:19:39;;;;;;;4.35;3.60;;;;;;;-140.79;100.00;63287.88;5028816;28;20475;-65
2021/11/25 00:22:05;;;;;;;4.70;3.83;;;;;;;-140.79;100.00;63287.88;5027479;28;20091;-65
2021/11/25 00:24:30;;;;;;;5.25;3.65;;;;;;;-140.79;100.00;63287.88;5029032;28;20021;-65
2021/11/25 00:26:56;;;;;;;4.93;3.63;;;;;;;-140.79;100.00;63287.88;5029166;28;20021;-65
2021/11/25 00:29:21;;;;;;;5.50;3.88;;;;;;;-140.79;100.00;63287.88;5029153;28;20511;-65
2021/11/25 00:31:47;;;;;;;4.63;3.65;;;;;;;-140.79;100.00;63287.88;5028701;28;20057;-65
2021/11/25 00:34:12;;;;;;;4.63;3.88;;;;;;;-140.79;100.00;63287.88;5029201;28;20029;-66
2021/11/25 00:36:38;;;;;;;4.63;3.83;;;;;;;-140.79;100.00;63287.88;5027485;28;20049;-65
2021/11/25 00:39:03;;;;;;;4.85;3.40;;;;;;;-140.79;100.00;63287.88;5027003;28;20029;-65
2021/11/25 00:41:29;;;;;;;4.90;3.88;;;;;;;-140.79;100.00;63287.88;5027334;28;20037;-65
2021/11/25 00:43:54;;;;;;;5.32;4.20;;;;;;;-140.79;100.00;63287.88;5028901;28;20029;-65
2021/11/25 00:46:20;;;;;;;4.53;3.67;;;;;;;-140.79;100.00;63287.88;5028334;28;20496;-64
2021/11/25 00:48:45;;;;;;;4.70;3.75;;;;;;;-140.79;100.00;63287.88;5027289;28;20029;-65
2021/11/25 00:51:11;;;;;;;4.65;3.38;;;;;;;-140.79;100.00;63287.88;5028585;28;20030;-65
2021/11/25 00:53:36;;;;;;;4.97;3.45;;;;;;;-140.79;100.00;63287.88;5026985;28;20030;-65
2021/11/25 00:56:02;;;;;;;5.03;3.92;;;;;;;-140.79;100.00;63287.88;5028644;28;20472;-65
2021/11/25 00:58:28;;;;;;;4.60;3.55;;;;;;;-140.79;100.00;63287.88;5028454;28;20026;-65
2021/11/25 01:03:28;;;;;;;4.57;3.63;;;;;;;-140.79;100.00;63287.88;4974773;22;20543;-65
2021/11/25 01:05:54;;;;;;;4.55;3.50;;;;;;;-140.79;100.00;63287.88;4987890;28;20053;-64
2021/11/25 01:08:19;;;;;;;3.95;3.40;;;;;;;-140.79;100.00;63287.88;4989644;28;20034;-65
2021/11/25 01:10:45;;;;;;;5.05;3.58;;;;;;;-140.79;100.00;63287.88;4989384;28;20065;-64
2021/11/25 01:13:11;;;;;;;4.43;3.33;;;;;;;-140.79;100.00;63287.88;4988602;28;20030;-64
2021/11/25 01:15:36;;;;;;;4.40;3.45;;;;;;;-140.79;100.00;63287.88;4989550;28;20495;-64
2021/11/25 01:18:22;;;;;;;4.25;3.58;;;;;;;-140.79;100.00;63287.88;4989456;28;20165;-64
2021/11/25 01:20:48;;;;;;;4.85;3.63;;;;;;;-140.79;100.00;63287.88;4987446;28;20077;-64
2021/11/25 01:23:20;;;;;;;4.10;3.63;;;;;;;-140.79;100.00;63287.88;4988119;28;20022;-64
2021/11/25 01:25:45;;;;;;;4.40;3.67;;;;;;;-140.79;100.00;63287.88;4984321;28;20030;-64
2021/11/25 01:28:14;;;;;;;4.63;3.70;;;;;;;-140.79;100.00;63287.88;4989455;28;20041;-65
2021/11/25 01:30:40;;;;;;;4.22;3.13;;;;;;;-140.79;100.00;63287.88;4988572;28;20030;-65
2021/11/25 01:33:06;;;;;;;4.40;3.50;;;;;;;-140.79;100.00;63287.88;4989126;28;20046;-65
2021/11/25 01:35:32;;;;;;;4.65;3.50;;;;;;;-140.79;100.00;63287.88;4989029;28;20120;-64
2021/11/25 01:37:57;;;;;;;5.38;3.97;;;;;;;-140.79;100.00;63287.88;4989174;28;20030;-65
2021/11/25 01:40:22;;;;;;;4.43;3.67;;;;;;;-140.79;100.00;63287.88;4988766;28;20108;-65
2021/11/25 01:42:48;;;;;;;4.03;3.35;;;;;;;-140.79;100.00;63287.88;4988960;28;20072;-64
2021/11/25 01:45:13;;;;;;;4.63;3.50;;;;;;;-140.79;100.00;63287.88;4988808;28;20030;-65
2021/11/25 01:47:43;;;;;;;4.50;3.45;;;;;;;-140.79;100.00;63287.88;4988431;28;20030;-65
2021/11/25 01:50:10;;;;;;;3.88;3.47;;;;;;;-140.79;100.00;63287.88;4986901;28;20032;-65
2021/11/25 01:52:36;;;;;;;4.07;3.30;;;;;;;-140.79;100.00;63287.88;4988243;28;20038;-65
2021/11/25 01:55:01;;;;;;;4.47;3.38;;;;;;;-140.79;100.00;63287.88;4988239;28;20031;-65
2021/11/25 01:57:27;;;;;;;4.35;3.20;;;;;;;-140.79;100.00;63287.88;4988654;28;20026;-65
2021/11/25 01:59:53;;;;;;;4.65;3.70;;;;;;;-140.79;100.00;63287.88;4988480;28;20026;-65
2021/11/25 02:02:18;;;;;;;4.50;3.50;;;;;;;-140.79;100.00;63287.88;4986896;28;20038;-65
2021/11/25 02:04:44;;;;;;;4.50;3.40;;;;;;;-140.79;100.00;63287.88;4988721;28;20030;-65
2021/11/25 02:07:09;;;;;;;4.43;3.30;;;;;;;-140.79;100.00;63287.88;4986904;28;20121;-65
2021/11/25 02:09:35;;;;;;;4.22;3.50;;;;;;;-140.79;100.00;63287.88;4987967;28;20027;-65
2021/11/25 02:12:00;;;;;;;4.45;3.33;;;;;;;-140.79;100.00;63287.88;4988714;28;20478;-65
2021/11/25 02:14:26;;;;;;;4.78;3.53;;;;;;;-140.79;100.00;63287.88;4988670;28;20081;-64
2021/11/25 02:16:52;;;;;;;4.03;3.33;;;;;;;-140.79;100.00;63287.88;4988364;28;20038;-64
2021/11/25 02:19:17;;;;;;;3.95;3.10;;;;;;;-140.79;100.00;63287.88;4987015;28;20049;-65
2021/11/25 02:21:43;;;;;;;3.85;3.17;;;;;;;-140.79;100.00;63287.88;4988122;28;20046;-64
2021/11/25 02:24:09;;;;;;;4.28;3.50;;;;;;;-140.79;100.00;63287.88;4988124;28;20704;-65
2021/11/25 02:26:34;;;;;;;4.25;3.20;;;;;;;-140.79;100.00;63287.88;4988182;28;20026;-65
2021/11/25 02:29:00;;;;;;;4.05;3.38;;;;;;;-140.79;100.00;63287.88;4988519;28;20496;-64
2021/11/25 02:31:25;;;;;;;3.67;2.97;;;;;;;-140.79;100.00;63287.88;4987845;28;20045;-65
2021/11/25 02:33:51;;;;;;;4.43;3.38;;;;;;;-140.79;100.00;63287.88;4988324;28;20034;-65
2021/11/25 02:36:16;;;;;;;3.97;2.95;;;;;;;-140.79;100.00;63287.88;4988276;28;20125;-65
2021/11/25 02:38:42;;;;;;;4.55;3.58;;;;;;;-140.79;100.00;63287.88;4988068;28;20109;-64
2021/11/25 02:41:07;;;;;;;4.28;3.53;;;;;;;-140.79;100.00;63287.88;4988239;28;20550;-65
2021/11/25 02:43:34;;;;;;;3.45;3.00;;;;;;;-140.79;100.00;63287.88;4987192;28;20455;-65
2021/11/25 02:46:03;;;;;;;4.53;3.38;;;;;;;-140.79;100.00;63287.88;4986477;28;20058;-64
2021/11/25 02:48:53;;;;;;;4.20;3.58;;;;;;;-140.79;100.00;63287.88;4988422;28;20041;-65
2021/11/25 02:51:20;;;;;;;3.70;2.90;;;;;;;-140.79;100.00;63287.88;4987858;28;20093;-65
2021/11/25 02:53:47;;;;;;;4.90;3.45;;;;;;;-140.79;100.00;63287.88;5002978;28;20034;-65
2021/11/25 02:56:23;;;;;;;4.32;3.45;;;;;;;-140.79;100.00;63287.88;4987828;28;20118;-65
2021/11/25 02:58:49;;;;;;;4.15;3.40;;;;;;;-140.79;100.00;63287.88;5003061;28;20774;-64
2021/11/25 03:01:36;;;;;;;4.07;3.20;;;;;;;-140.79;100.00;63287.88;4986822;28;20113;-65
2021/11/25 03:04:02;;;;;;;3.70;3.30;;;;;;;-140.79;100.00;63287.88;4991609;28;20042;-64
2021/11/25 03:06:27;;;;;;;4.25;3.20;;;;;;;-140.79;100.00;63287.88;4991741;28;20161;-65
2021/11/25 03:08:53;;;;;;;4.15;3.30;;;;;;;-140.79;100.00;63287.88;4990071;28;20023;-65
2021/11/25 03:11:20;;;;;;;4.22;3.35;;;;;;;-140.79;100.00;63287.88;4990664;28;20022;-64
2021/11/25 03:13:50;;;;;;;4.10;3.35;;;;;;;-140.79;100.00;63287.88;4991205;28;20026;-65
2021/11/25 03:16:16;;;;;;;3.97;3.00;;;;;;;-140.79;100.00;63287.88;4991262;28;20026;-65
2021/11/25 03:18:42;;;;;;;3.95;3.10;;;;;;;-140.79;100.00;63287.88;4989975;28;20026;-64
2021/11/25 03:21:08;;;;;;;4.05;3.38;;;;;;;-140.79;100.00;63287.88;4989559;28;20453;-64
2021/11/25 03:23:34;;;;;;;3.88;3.03;;;;;;;-140.79;100.00;63287.88;5006563;28;20030;-65
2021/11/25 03:26:00;;;;;;;4.32;3.33;;;;;;;-140.79;100.00;63287.88;4989748;28;20852;-65
2021/11/25 03:28:26;;;;;;;3.72;3.10;;;;;;;-140.79;100.00;63287.88;4991132;28;20014;-65
2021/11/25 03:30:55;;;;;;;3.90;3.20;;;;;;;-140.79;100.00;63287.88;4990796;28;20097;-65
2021/11/25 03:33:30;;;;;;;4.10;2.92;;;;;;;-140.79;100.00;63287.88;4991169;28;20161;-65
2021/11/25 03:35:56;;;;;;;4.10;3.30;;;;;;;-140.79;100.00;63287.88;4990693;28;20033;-65
2021/11/25 03:38:21;;;;;;;4.30;3.05;;;;;;;-140.79;100.00;63287.88;4990949;28;20031;-65
2021/11/25 03:40:47;;;;;;;4.60;3.22;;;;;;;-140.79;100.00;63287.88;4990692;28;20026;-65
2021/11/25 03:43:12;;;;;;;4.03;3.25;;;;;;;-140.79;100.00;63287.88;4990927;28;20472;-64
2021/11/25 03:45:39;;;;;;;4.25;3.40;;;;;;;-140.79;100.00;63287.88;4990616;28;20036;-65
2021/11/25 03:48:05;;;;;;;3.90;3.35;;;;;;;-140.79;100.00;63287.88;4990805;28;20034;-66
2021/11/25 03:50:30;;;;;;;3.72;3.13;;;;;;;-140.79;100.00;63287.88;4990383;28;20465;-65
2021/11/25 03:52:56;;;;;;;4.45;3.15;;;;;;;-140.79;100.00;63287.88;5005084;28;20030;-64
2021/11/25 03:55:21;;;;;;;4.28;3.50;;;;;;;-140.79;100.00;63287.88;4990650;28;20034;-65
2021/11/25 03:57:47;;;;;;;4.15;3.20;;;;;;;-140.79;100.00;63287.88;4991613;28;20041;-64
2021/11/25 04:00:14;;;;;;;4.15;3.22;;;;;;;-140.79;100.00;63287.88;4990434;28;20027;-65
2021/11/25 04:02:41;;;;;;;4.40;3.08;;;;;;;-140.79;100.00;63287.88;4989735;28;20050;-64
2021/11/25 04:05:07;;;;;;;4.63;3.45;;;;;;;-140.79;100.00;63287.88;4989904;28;20417;-64
2021/11/25 04:07:33;;;;;;;3.30;2.88;;;;;;;-140.79;100.00;63287.88;4990183;28;20038;-64
2021/11/25 04:09:58;;;;;;;4.07;3.38;;;;;;;-140.79;100.00;63287.88;4989615;28;20037;-64
2021/11/25 04:12:23;;;;;;;4.47;3.42;;;;;;;-140.79;100.00;63287.88;4989913;28;20030;-65
2021/11/25 04:14:49;;;;;;;3.53;2.92;;;;;;;-140.79;100.00;63287.88;4990266;28;20027;-65
2021/11/25 04:17:18;;;;;;;4.05;3.17;;;;;;;-140.79;100.00;63287.88;4988223;28;20058;-64
2021/11/25 04:19:43;;;;;;;4.03;3.15;;;;;;;-140.79;100.00;63287.88;5004824;28;20057;-65
2021/11/25 04:22:09;;;;;;;3.38;2.83;;;;;;;-140.79;100.00;63287.88;5004564;28;20060;-66
2021/11/25 04:24:34;;;;;;;3.83;3.13;;;;;;;-140.79;100.00;63287.88;5004433;28;20029;-64
2021/11/25 04:27:00;;;;;;;3.33;2.83;;;;;;;-140.79;100.00;63287.88;5006547;28;20079;-65
2021/11/25 04:29:26;;;;;;;3.58;2.83;;;;;;;-140.79;100.00;63287.88;5007553;28;20025;-65
2021/11/25 04:37:19;;;;;;;4.00;3.35;;;;;;;-140.79;100.00;63287.88;5006034;28;20036;-65
2021/11/25 04:39:45;;;;;;;4.55;3.60;;;;;;;-140.79;100.00;63287.88;5008243;28;20026;-66
2021/11/25 04:42:10;;;;;;;4.10;3.28;;;;;;;-140.79;100.00;63287.88;5006067;28;20041;-65
2021/11/25 04:44:36;;;;;;;4.38;3.25;;;;;;;-140.79;100.00;63287.88;5006488;28;20026;-65
2021/11/25 04:47:02;;;;;;;4.13;3.42;;;;;;;-140.79;100.00;63287.88;4946188;28;20030;-66
2021/11/25 04:49:27;;;;;;;3.83;3.08;;;;;;;-140.79;100.00;63287.88;5022442;28;20463;-65
2021/11/25 04:51:53;;;;;;;3.95;2.97;;;;;;;-140.79;100.00;63287.88;5006994;28;20148;-67
2021/11/25 04:54:18;;;;;;;14.98;4.05;;;;;;;-140.79;100.00;63287.88;4999001;28;20471;-65
2021/11/25 04:56:44;;;;;;;8.05;3.50;;;;;;;-140.79;100.00;63287.88;5003703;28;20576;-68
2021/11/25 04:59:10;;;;;;;8.82;3.83;;;;;;;-140.79;100.00;63287.88;5007769;28;20030;-68
2021/11/25 05:01:36;;;;;;;16.02;4.78;;;;;;;-140.79;100.00;63287.88;4981973;28;20065;-69
2021/11/25 05:04:01;;;;;;;9.88;4.20;;;;;;;-140.79;100.00;63287.88;4983985;28;20043;-69
2021/11/25 05:06:27;;;;;;;11.18;4.05;;;;;;;-140.79;100.00;63287.88;4972003;28;20030;-69
2021/11/25 05:08:52;;;;;;;11.98;4.15;;;;;;;-140.79;100.00;63287.88;4977118;28;20105;-67
2021/11/25 05:11:18;;;;;;;13.50;4.32;;;;;;;-140.79;100.00;63287.88;4993587;28;20523;-66
2021/11/25 05:13:43;;;;;;;15.40;4.43;;;;;;;-140.79;100.00;63287.88;5002772;28;20496;-67
2021/11/25 05:16:08;;;;;;;13.32;4.20;;;;;;;-140.79;100.00;63287.88;5004213;28;20060;-68
2021/11/25 05:18:34;;;;;;;14.45;4.70;;;;;;;-140.79;100.00;63287.88;5007065;28;20049;-66
2021/11/25 05:20:59;;;;;;;12.55;4.35;;;;;;;-140.79;100.00;63287.88;4999864;28;20041;-68
2021/11/25 05:23:25;;;;;;;16.95;4.70;;;;;;;-140.79;100.00;63287.88;5005122;28;20464;-67
2021/11/25 05:25:53;;;;;;;15.25;4.90;;;;;;;-140.79;100.00;63287.88;4999302;28;20495;-67
2021/11/25 05:28:18;;;;;;;14.82;4.30;;;;;;;-140.79;100.00;63287.88;5006647;28;20042;-66
2021/11/25 05:30:44;;;;;;;15.18;4.63;;;;;;;-140.79;100.00;63287.88;5008277;28;20484;-68
2021/11/25 05:33:10;;;;;;;13.52;5.00;;;;;;;-140.79;100.00;63287.88;5008743;28;20511;-65
2021/11/25 05:35:37;;;;;;;13.70;4.85;;;;;;;-140.79;100.00;63287.88;5006544;28;20026;-69
2021/11/25 05:38:02;;;;;;;17.23;5.22;;;;;;;-140.79;100.00;63287.88;5008374;28;20161;-66
2021/11/25 05:40:28;;;;;;;12.65;4.82;;;;;;;-140.79;100.00;63287.88;5007700;28;20833;-68
2021/11/25 05:42:53;;;;;;;14.73;5.22;;;;;;;-140.79;100.00;63287.88;5007757;28;20072;-66
2021/11/25 05:45:19;;;;;;;14.38;5.40;;;;;;;-140.79;100.00;63287.88;5008332;28;20508;-67
2021/11/25 05:47:46;;;;;;;15.38;4.28;;;;;;;-140.79;100.00;63287.88;5007570;28;20029;-67
2021/11/25 05:50:17;;;;;;;13.80;4.55;;;;;;;-140.79;100.00;63287.88;5006257;28;20045;-70
2021/11/25 05:52:43;;;;;;;17.70;4.90;;;;;;;-140.79;100.00;63287.88;5007496;28;20025;-66
2021/11/25 05:55:09;;;;;;;12.05;4.72;;;;;;;-140.79;100.00;63287.88;5006535;28;20730;-67
2021/11/25 05:57:35;;;;;;;17.48;5.57;;;;;;;-140.79;100.00;63287.88;4993573;28;20022;-67
2021/11/25 06:00:00;;;;;;;18.40;7.38;;;;;;;-140.79;100.00;63287.88;4986653;28;20030;-63
2021/11/25 06:02:25;;;;;;;22.92;8.68;;;;;;;-140.79;100.00;63287.88;4986079;28;20029;-73
2021/11/25 06:04:51;;;;;;;23.73;10.52;;;;;;;-140.79;100.00;63287.88;4987923;28;20030;-71
2021/11/25 06:07:16;;;;;;;20.38;11.00;;;;;;;-140.79;100.00;63287.88;4987663;28;20034;-71
2021/11/25 06:09:42;;;;;;;24.00;10.07;;;;;;;-140.79;100.00;63287.88;4999943;28;20092;-71
2021/11/25 06:12:08;;;;;;;22.95;10.18;;;;;;;-140.79;100.00;63287.88;5005955;28;20038;-70
2021/11/25 06:14:33;;;;;;;23.50;9.27;;;;;;;-140.79;100.00;63287.88;5005961;28;20034;-68
2021/11/25 06:16:59;;;;;;;19.42;9.45;;;;;;;-140.79;100.00;63287.88;5006551;28;20109;-70
2021/11/25 06:19:24;;;;;;;26.88;9.43;;;;;;;-140.79;100.00;63287.88;5007059;28;20029;-68
2021/11/25 06:21:50;;;;;;;20.98;9.18;;;;;;;-140.79;100.00;63287.88;5007042;28;20026;-69
2021/11/25 06:24:15;;;;;;;19.17;8.43;;;;;;;-140.79;100.00;63287.88;5003300;28;20111;-68
2021/11/25 06:26:44;;;;;;;19.70;9.02;;;;;;;-140.79;100.00;63287.88;5002920;28;20037;-69
2021/11/25 06:29:09;;;;;;;23.15;8.48;;;;;;;-140.79;100.00;63287.88;5002281;28;20026;-69
2021/11/25 06:31:35;;;;;;;19.55;8.10;;;;;;;-140.79;100.00;63287.88;5005149;28;20132;-69
2021/11/25 06:34:00;;;;;;;17.73;7.97;;;;;;;-140.79;100.00;63287.88;5007023;28;20022;-69
2021/11/25 06:36:26;;;;;;;16.85;8.27;;;;;;;-140.79;100.00;63287.88;5009728;28;20083;-69
2021/11/25 06:38:51;;;;;;;19.77;8.60;;;;;;;-140.79;100.00;63287.88;5010681;28;20029;-69
2021/11/25 06:41:17;;;;;;;17.70;8.00;;;;;;;-140.79;100.00;63287.88;5010710;28;20030;-69
2021/11/25 06:43:42;;;;;;;17.05;7.57;;;;;;;-140.79;100.00;63287.88;5007851;28;20026;-68
2021/11/25 06:46:07;;;;;;;15.20;7.93;;;;;;;-140.79;100.00;63287.88;5010175;28;20407;-68
2021/11/25 06:48:33;;;;;;;18.52;7.53;;;;;;;-140.79;100.00;63287.88;5010464;28;20033;-68
2021/11/25 06:50:58;;;;;;;15.80;7.25;;;;;;;-140.79;100.00;63287.88;5010274;28;20022;-69
2021/11/25 06:53:26;;;;;;;18.73;7.45;;;;;;;-140.79;100.00;63287.88;5009409;28;20022;-68
2021/11/25 06:55:52;;;;;;;17.92;7.82;;;;;;;-140.79;100.00;63287.88;5007014;28;20036;-68
2021/11/25 06:58:17;;;;;;;15.30;7.07;;;;;;;-140.79;100.00;63287.88;5020658;28;20061;-69
2021/11/25 07:00:43;;;;;;;16.65;8.02;;;;;;;-140.79;100.00;63287.88;5009244;28;20065;-69
2021/11/25 07:03:08;;;;;;;15.27;6.90;;;;;;;-140.79;100.00;63287.88;5010302;28;20124;-68
2021/11/25 07:05:34;;;;;;;15.57;7.68;;;;;;;-140.79;100.00;63287.88;5009096;28;20026;-67
2021/11/25 07:07:59;;;;;;;15.85;7.50;;;;;;;-140.79;100.00;63287.88;5007878;28;20095;-64
2021/11/25 07:10:25;;;;;;;13.02;7.07;;;;;;;-140.79;100.00;63287.88;5006771;28;20026;-65
2021/11/25 07:12:50;;;;;;;13.77;6.78;;;;;;;-140.79;100.00;63287.88;5008924;28;20033;-65
2021/11/25 07:15:17;;;;;;;14.75;6.88;;;;;;;-140.79;100.00;63287.88;5008655;28;20030;-65
2021/11/25 07:17:45;;;;;;;14.18;7.00;;;;;;;-140.79;100.00;63287.88;4998888;28;20382;-65
2021/11/25 07:20:11;;;;;;;16.95;7.25;;;;;;;-140.79;100.00;63287.88;5008035;28;20037;-63
2021/11/25 07:22:38;;;;;;;16.88;7.28;;;;;;;-140.79;100.00;63287.88;5009876;28;20034;-65
2021/11/25 07:25:04;;;;;;;14.88;6.75;;;;;;;-140.79;100.00;63287.88;5008442;28;20121;-65
2021/11/25 07:27:30;;;;;;;14.38;6.95;;;;;;;-140.79;100.00;63287.88;5008729;28;20033;-65
2021/11/25 07:29:55;;;;;;;15.55;6.82;;;;;;;-140.79;100.00;63287.88;5009283;28;20030;-65
2021/11/25 07:32:21;;;;;;;14.45;7.32;;;;;;;-140.79;100.00;63287.88;5009760;28;20021;-64
2021/11/25 07:34:46;;;;;;;20.00;6.78;;;;;;;-140.79;100.00;63287.88;5008573;28;20044;-65
2021/11/25 07:37:11;;;;;;;14.85;6.80;;;;;;;-140.79;100.00;63287.88;5010027;28;20088;-64
2021/11/25 07:39:37;;;;;;;12.88;7.15;;;;;;;-140.79;100.00;63287.88;5010518;28;20034;-64
2021/11/25 07:42:03;;;;;;;14.15;6.85;;;;;;;-140.79;100.00;63287.88;5010274;28;20029;-65
2021/11/25 07:44:28;;;;;;;13.00;5.85;;;;;;;-140.79;100.00;63287.88;5010358;28;20029;-64
2021/11/25 07:46:54;;;;;;;13.30;6.60;;;;;;;-140.79;100.00;63287.88;5005169;28;20160;-64
2021/11/25 07:49:20;;;;;;;11.98;6.82;;;;;;;-140.79;100.00;63287.88;5007628;28;20507;-64
2021/11/25 07:51:46;;;;;;;11.30;5.78;;;;;;;-140.79;100.00;63287.88;5021343;28;20412;-64
2021/11/25 07:54:11;;;;;;;10.10;5.82;;;;;;;-140.79;100.00;63287.88;5002941;28;20382;-65
2021/11/25 07:56:38;;;;;;;11.52;6.35;;;;;;;-140.79;100.00;63287.88;5004530;28;20100;-65
2021/11/25 07:59:03;;;;;;;10.10;5.97;;;;;;;-140.79;100.00;63287.88;4976161;28;20036;-65
2021/11/25 08:01:29;;;;;;;10.75;6.30;;;;;;;-140.79;100.00;63287.88;5007492;28;20029;-66
2021/11/25 08:03:54;;;;;;;10.27;5.90;;;;;;;-140.79;100.00;63287.88;5008915;28;20053;-64
2021/11/25 08:06:20;;;;;;;10.88;6.00;;;;;;;-140.79;100.00;63287.88;5009984;28;20060;-64
2021/11/25 08:08:46;;;;;;;11.68;5.78;;;;;;;-140.79;100.00;63287.88;5009213;28;20403;-64
2021/11/25 08:11:12;;;;;;;9.60;5.80;;;;;;;-140.79;100.00;63287.88;5009243;28;20038;-65
2021/11/25 08:13:37;;;;;;;10.75;5.95;;;;;;;-140.79;100.00;63287.88;5009194;28;20063;-66
2021/11/25 08:16:03;;;;;;;9.25;5.45;;;;;;;-140.79;100.00;63287.88;5008662;28;20416;-67
2021/11/25 08:18:28;;;;;;;13.10;5.47;;;;;;;-140.79;100.00;63287.88;5009683;28;20037;-64
2021/11/25 08:20:54;;;;;;;12.77;5.50;;;;;;;-140.79;100.00;63287.88;5005788;28;20029;-63
2021/11/25 08:23:19;;;;;;;13.70;5.38;;;;;;;-140.79;100.00;63287.88;5009647;28;20034;-63
2021/11/25 08:25:45;;;;;;;10.38;5.88;;;;;;;-140.79;100.00;63287.88;5007351;28;20017;-64
2021/11/25 08:28:10;;;;;;;11.18;5.22;;;;;;;-140.79;100.00;63287.88;5006450;28;20026;-65
2021/11/25 08:30:36;;;;;;;9.77;5.55;;;;;;;-140.79;100.00;63287.88;5007351;28;20018;-65
2021/11/25 08:33:01;;;;;;;8.90;5.18;;;;;;;-140.79;100.00;63287.88;5008305;28;20124;-65
2021/11/25 08:35:27;;;;;;;9.65;5.20;;;;;;;-140.79;100.00;63287.88;5005830;28;20034;-65
2021/11/25 08:37:53;;;;;;;9.68;5.95;;;;;;;-140.79;100.00;63287.88;5008306;28;20018;-65
2021/11/25 08:40:18;;;;;;;10.00;4.97;;;;;;;-140.79;100.00;63287.88;5008209;28;20851;-65
2021/11/25 08:42:44;;;;;;;9.77;5.30;;;;;;;-140.79;100.00;63287.88;5008864;28;20022;-65
2021/11/25 08:45:10;;;;;;;9.02;5.05;;;;;;;-140.79;100.00;63287.88;5008389;28;20018;-71
2021/11/25 08:47:35;;;;;;;8.60;4.65;;;;;;;-140.79;100.00;63287.88;5009119;28;20500;-77
2021/11/25 08:50:01;;;;;;;9.32;4.90;;;;;;;-140.79;100.00;63287.88;5009236;28;20133;-67
2021/11/25 08:52:26;;;;;;;9.75;5.03;;;;;;;-140.79;100.00;63287.88;5009123;28;20484;-66
2021/11/25 08:54:52;;;;;;;6.88;4.63;;;;;;;-140.79;100.00;63287.88;5003881;28;20037;-64
2021/11/25 08:57:17;;;;;;;9.00;5.20;;;;;;;-140.79;100.00;63287.88;5007839;28;20025;-66
2021/11/25 08:59:43;;;;;;;10.20;4.70;;;;;;;-140.79;100.00;63287.88;5004176;28;20452;-66
2021/11/25 09:02:09;;;;;;;7.93;4.43;;;;;;;-140.79;100.00;63287.88;5006325;28;20512;-67
2021/11/25 09:04:35;;;;;;;8.68;4.95;;;;;;;-140.79;100.00;63287.88;5001910;28;20073;-67
2021/11/25 09:07:00;;;;;;;8.68;4.95;;;;;;;-140.79;100.00;63287.88;4999920;28;20114;-65
2021/11/25 09:09:26;;;;;;;8.30;4.97;;;;;;;-140.79;100.00;63287.88;5004290;28;20018;-65
2021/11/25 09:11:51;;;;;;;7.03;4.35;;;;;;;-140.79;100.00;63287.88;4999471;28;20068;-65
2021/11/25 09:14:17;;;;;;;7.47;4.93;;;;;;;-140.79;100.00;63287.88;5004984;28;20034;-65
2021/11/25 09:16:42;;;;;;;6.53;4.22;;;;;;;-140.79;100.00;63287.88;5004930;28;20048;-65
2021/11/25 09:19:08;;;;;;;6.70;4.55;;;;;;;-140.79;100.00;63287.88;5003436;28;20054;-65
2021/11/25 09:21:33;;;;;;;6.65;4.50;;;;;;;-140.79;100.00;63287.88;5017745;28;20021;-65
2021/11/25 09:24:00;;;;;;;6.57;4.53;;;;;;;-140.79;100.00;63287.88;5000683;28;20021;-65
2021/11/25 09:26:25;;;;;;;7.45;4.13;;;;;;;-140.79;100.00;63287.88;5003940;28;20060;-65
2021/11/25 09:28:51;;;;;;;7.93;4.60;;;;;;;-140.79;100.00;63287.88;5003530;28;20026;-64
2021/11/25 09:31:18;;;;;;;7.53;4.47;;;;;;;-140.79;100.00;63287.88;5002425;28;20503;-65
2021/11/25 09:33:44;;;;;;;7.72;4.55;;;;;;;-140.79;100.00;63287.88;5002414;28;20085;-65
2021/11/25 09:36:09;;;;;;;7.03;4.35;;;;;;;-140.79;100.00;63287.88;5000895;28;20065;-66
2021/11/25 09:38:35;;;;;;;7.78;4.85;;;;;;;-140.79;100.00;63287.88;4997229;28;20054;-65
2021/11/25 09:41:01;;;;;;;7.40;4.90;;;;;;;-140.79;100.00;63287.88;5014669;28;20037;-65
2021/11/25 09:43:27;;;;;;;7.90;4.50;;;;;;;-140.79;100.00;63287.88;5001863;28;20022;-64
2021/11/25 09:45:53;;;;;;;7.38;4.63;;;;;;;-140.79;100.00;63287.88;5005908;28;20499;-64
2021/11/25 09:48:21;;;;;;;6.57;4.28;;;;;;;-140.79;100.00;63287.88;5000971;28;20037;-65
2021/11/25 09:50:49;;;;;;;7.28;4.40;;;;;;;-140.79;100.00;63287.88;4997543;28;20026;-65
2021/11/25 09:53:15;;;;;;;7.53;4.65;;;;;;;-140.79;100.00;63287.88;4992489;28;20026;-65
2021/11/25 09:55:47;;;;;;;7.72;4.15;;;;;;;-140.79;100.00;63287.88;4972873;28;20046;-64
2021/11/25 09:58:13;;;;;;;6.05;4.07;;;;;;;-140.79;100.00;63287.88;4974528;28;20034;-69
2021/11/25 10:00:42;;;;;;;8.05;4.13;;;;;;;-140.79;100.00;63287.88;4985583;28;20026;-64
2021/11/25 10:03:08;;;;;;;6.25;4.07;;;;;;;-140.79;100.00;63287.88;5002661;28;20065;-71
2021/11/25 10:05:33;;;;;;;5.47;3.92;;;;;;;-140.79;100.00;63287.88;4984484;28;20053;-68
2021/11/25 10:07:59;;;;;;;6.60;4.13;;;;;;;-140.79;100.00;63287.88;4989826;28;20038;-68
2021/11/25 10:10:29;;;;;;;6.53;4.65;;;;;;;-140.79;100.00;63287.88;4985412;28;20034;-66
2021/11/25 10:12:59;;;;;;;6.50;4.55;;;;;;;-140.79;100.00;63287.88;4987471;28;20058;-67
2021/11/25 10:15:24;;;;;;;6.03;4.80;;;;;;;-140.79;100.00;63287.88;4987738;28;20085;-65
2021/11/25 10:17:52;;;;;;;6.63;4.68;;;;;;;-140.79;100.00;63287.88;4987193;28;20471;-64
2021/11/25 10:20:21;;;;;;;8.15;4.88;;;;;;;-140.79;100.00;63287.88;4986586;28;20420;-66
2021/11/25 10:23:02;;;;;;;6.75;5.03;;;;;;;-140.79;100.00;63287.88;4980487;28;20619;-66
2021/11/25 10:25:56;;;;;;;8.40;5.07;;;;;;;-140.79;100.00;63287.88;4987826;28;20053;-66
2021/11/25 10:28:41;;;;;;;7.40;4.85;;;;;;;-140.79;100.00;63287.88;4987332;28;20038;-66
2021/11/25 10:31:08;;;;;;;6.88;4.93;;;;;;;-140.79;100.00;63287.88;4987579;28;20089;-65
2021/11/25 10:33:58;;;;;;;6.75;4.28;;;;;;;-140.79;100.00;63287.88;4986844;28;20117;-66
2021/11/25 10:39:09;;;;;;;7.03;4.72;;;;;;;-140.79;100.00;63287.88;4986067;28;20033;-65
2021/11/25 10:41:36;;;;;;;6.43;4.85;;;;;;;-140.79;100.00;63287.88;4986803;28;20061;-66
2021/11/25 10:44:10;;;;;;;6.68;4.72;;;;;;;-140.79;100.00;63287.88;4992343;28;20034;-73
2021/11/25 10:47:03;;;;;;;6.82;4.57;;;;;;;-140.79;100.00;63287.88;5003652;28;20068;-65
2021/11/25 10:49:42;;;;;;;5.85;4.45;;;;;;;-140.79;100.00;63287.88;4984878;28;20041;-67
2021/11/25 10:52:14;;;;;;;5.40;4.38;;;;;;;-140.79;100.00;63287.88;4999593;28;20505;-67
2021/11/25 10:54:42;;;;;;;6.45;4.40;;;;;;;-140.79;100.00;63287.88;5000864;28;20058;-66
2021/11/25 10:57:07;;;;;;;6.00;4.38;;;;;;;-140.79;100.00;63287.88;4997083;28;20026;-67
2021/11/25 10:59:35;;;;;;;5.95;4.43;;;;;;;-140.79;100.00;63287.88;4988324;28;20033;-64
2021/11/25 11:02:00;;;;;;;5.38;4.15;;;;;;;-140.79;100.00;63287.88;4997734;28;20069;-64
2021/11/25 11:04:43;;;;;;;6.18;4.20;;;;;;;-140.79;100.00;63287.88;5002770;28;20042;-63
2021/11/25 11:07:20;;;;;;;7.50;4.50;;;;;;;-140.79;100.00;63287.88;5001949;28;20100;-63
2021/11/25 11:09:46;;;;;;;5.30;4.10;;;;;;;-140.79;100.00;63287.88;4986780;28;20079;-63
2021/11/25 11:12:25;;;;;;;4.90;4.18;;;;;;;-140.79;100.00;63287.88;4998675;28;20025;-63
2021/11/25 11:14:55;;;;;;;5.57;3.85;;;;;;;-140.79;100.00;63287.88;5003464;28;20033;-64